Time;durP1;ratioP1;P1;durP2;ratioP2;P2;SDS_P1;SDS_P2;PMS_P1;PMS_P2;Temp;Humidity;BMP_temperature;BMP_pressure;BME280_temperature;BME280_humidity;BME280_pressure;Samples;Min_cycle;Max_cycle;Signal;HPM_P1;HPM_P2
2023/11/14 00:02:17;;;;;;;17.48;3.30;;;10.80;99.90;;;;;;4937954;29;20102;-83
2023/11/14 00:04:44;;;;;;;23.40;3.67;;;10.70;99.90;;;;;;4937780;29;20237;-83
2023/11/14 00:07:10;;;;;;;23.98;3.35;;;10.70;99.90;;;;;;4938227;29;20042;-82
2023/11/14 00:09:37;;;;;;;20.88;4.15;;;11.10;99.90;;;;;;4937828;29;20039;-82
2023/11/14 00:12:04;;;;;;;21.48;3.58;;;11.00;99.90;;;;;;4937475;29;20064;-82
2023/11/14 00:14:32;;;;;;;23.65;3.70;;;10.70;99.90;;;;;;4938124;29;20058;-83
2023/11/14 00:16:58;;;;;;;24.83;3.50;;;10.60;99.90;;;;;;4937651;29;20047;-82
2023/11/14 00:19:25;;;;;;;19.85;3.35;;;10.60;99.90;;;;;;4937360;29;20050;-82
2023/11/14 00:21:52;;;;;;;25.45;3.75;;;10.60;99.90;;;;;;4937485;29;20080;-82
2023/11/14 00:24:18;;;;;;;25.50;3.70;;;10.70;99.90;;;;;;4937625;29;20047;-82
2023/11/14 00:26:45;;;;;;;20.50;3.28;;;10.70;99.90;;;;;;4937535;29;20412;-82
2023/11/14 00:29:12;;;;;;;22.27;2.88;;;10.70;99.90;;;;;;4969089;29;20048;-82
2023/11/14 00:31:38;;;;;;;22.52;3.42;;;10.70;99.90;;;;;;4969076;29;20047;-82
2023/11/14 00:34:05;;;;;;;26.38;3.80;;;10.80;99.90;;;;;;4945680;29;20047;-82
2023/11/14 00:36:32;;;;;;;20.77;4.13;;;10.90;99.90;;;;;;4948530;29;20055;-82
2023/11/14 00:39:00;;;;;;;24.33;4.43;;;10.90;99.90;;;;;;4968744;29;20051;-82
2023/11/14 00:41:27;;;;;;;19.92;3.58;;;10.90;99.90;;;;;;4937471;29;20048;-81
2023/11/14 00:43:54;;;;;;;23.77;3.60;;;10.80;99.90;;;;;;4937278;29;20042;-82
2023/11/14 00:46:20;;;;;;;14.45;2.97;;;10.90;99.90;;;;;;4937045;29;20408;-82
2023/11/14 00:48:47;;;;;;;25.08;4.05;;;10.90;99.90;;;;;;4937249;29;20043;-82
2023/11/14 00:51:14;;;;;;;25.58;3.83;;;10.90;99.90;;;;;;4937176;29;20039;-82
2023/11/14 00:53:40;;;;;;;22.30;3.42;;;10.80;99.90;;;;;;4937068;29;20497;-82
2023/11/14 00:56:09;;;;;;;20.73;3.78;;;10.80;99.90;;;;;;4937358;29;20075;-82
2023/11/14 00:58:35;;;;;;;29.77;4.45;;;10.80;99.90;;;;;;4953040;29;20047;-82
2023/11/14 01:01:03;;;;;;;25.35;4.05;;;10.90;99.90;;;;;;4952672;29;20397;-82
2023/11/14 01:03:30;;;;;;;21.50;3.65;;;10.90;99.90;;;;;;4968698;29;20067;-82
2023/11/14 01:05:56;;;;;;;24.42;4.22;;;11.10;99.90;;;;;;4936686;29;20043;-82
2023/11/14 01:08:23;;;;;;;24.80;3.38;;;10.90;99.90;;;;;;4952770;29;20043;-82
2023/11/14 01:10:49;;;;;;;19.58;3.00;;;11.20;99.90;;;;;;4952532;29;20059;-82
2023/11/14 01:13:16;;;;;;;22.52;3.88;;;11.00;99.90;;;;;;4937014;29;20055;-82
2023/11/14 01:15:43;;;;;;;17.10;3.35;;;11.00;99.90;;;;;;4952104;29;20122;-83
2023/11/14 01:18:10;;;;;;;19.83;2.90;;;11.00;99.90;;;;;;4937333;29;20039;-82
2023/11/14 01:20:37;;;;;;;22.45;3.72;;;11.00;99.90;;;;;;4968285;29;20044;-82
2023/11/14 01:23:03;;;;;;;18.77;3.22;;;11.00;99.90;;;;;;4936723;29;20047;-82
2023/11/14 01:25:30;;;;;;;20.80;3.55;;;11.10;99.90;;;;;;4937139;29;20409;-82
2023/11/14 01:27:57;;;;;;;23.40;4.03;;;11.10;99.90;;;;;;4936523;29;20043;-82
2023/11/14 01:30:24;;;;;;;23.98;3.88;;;11.20;99.90;;;;;;4967971;29;20477;-82
2023/11/14 01:32:51;;;;;;;22.45;4.10;;;11.20;99.90;;;;;;4936720;29;20067;-82
2023/11/14 01:35:17;;;;;;;16.75;3.00;;;11.20;99.90;;;;;;4919909;29;20755;-82
2023/11/14 01:37:48;;;;;;;20.40;3.03;;;11.20;99.90;;;;;;4918118;29;20046;-82
2023/11/14 01:40:16;;;;;;;19.27;3.13;;;11.80;99.90;;;;;;4961855;29;20052;-82
2023/11/14 01:42:43;;;;;;;21.70;3.42;;;11.10;99.90;;;;;;4961512;29;20047;-82
2023/11/14 01:45:09;;;;;;;14.35;3.00;;;11.20;99.90;;;;;;4936193;29;20043;-82
2023/11/14 01:47:36;;;;;;;24.27;3.42;;;11.10;99.90;;;;;;4936863;29;20103;-81
2023/11/14 01:50:03;;;;;;;25.85;3.65;;;11.10;99.90;;;;;;4936619;29;20370;-82
2023/11/14 01:52:29;;;;;;;16.85;2.60;;;11.10;99.90;;;;;;4952452;29;20501;-82
2023/11/14 01:54:56;;;;;;;21.40;3.00;;;11.10;99.90;;;;;;4952492;29;20497;-82
2023/11/14 01:57:23;;;;;;;19.88;3.30;;;11.00;99.90;;;;;;4938208;29;20603;-82
2023/11/14 01:59:51;;;;;;;21.55;3.42;;;11.20;99.90;;;;;;4936255;29;20040;-82
2023/11/14 02:02:17;;;;;;;19.95;3.13;;;11.40;99.90;;;;;;4936162;29;20051;-82
2023/11/14 02:04:45;;;;;;;35.30;3.67;;;11.00;99.90;;;;;;4964114;29;20044;-84
2023/11/14 02:07:12;;;;;;;28.88;4.85;;;11.00;99.90;;;;;;4968234;29;20126;-83
2023/11/14 02:09:39;;;;;;;18.75;3.05;;;11.70;99.90;;;;;;4936604;29;20176;-82
2023/11/14 02:12:06;;;;;;;18.52;3.55;;;10.90;99.90;;;;;;4967523;29;20505;-83
2023/11/14 02:14:33;;;;;;;27.52;4.22;;;10.90;99.90;;;;;;4936112;29;20043;-83
2023/11/14 02:17:00;;;;;;;21.20;3.53;;;10.80;99.90;;;;;;4936502;29;20035;-83
2023/11/14 02:19:27;;;;;;;24.63;3.83;;;10.80;99.90;;;;;;4937846;29;20047;-83
2023/11/14 02:21:53;;;;;;;23.42;3.38;;;10.80;99.90;;;;;;4955827;29;20404;-82
2023/11/14 02:24:21;;;;;;;21.73;3.42;;;10.70;99.90;;;;;;4955573;29;20114;-82
2023/11/14 02:26:49;;;;;;;23.40;3.42;;;10.70;99.90;;;;;;4955204;29;20083;-83
2023/11/14 02:29:19;;;;;;;33.75;3.97;;;10.70;99.90;;;;;;4970715;29;20130;-82
2023/11/14 02:31:47;;;;;;;18.88;3.75;;;11.40;99.90;;;;;;4987033;29;20047;-83
2023/11/14 02:34:14;;;;;;;26.73;3.35;;;10.80;99.90;;;;;;4939818;29;20039;-82
2023/11/14 02:36:41;;;;;;;24.88;3.95;;;10.90;99.90;;;;;;4939324;29;20552;-83
2023/11/14 02:39:08;;;;;;;22.30;3.28;;;10.70;99.90;;;;;;4939519;29;20132;-83
2023/11/14 02:41:35;;;;;;;24.95;5.05;;;10.70;99.90;;;;;;4940200;29;20117;-83
2023/11/14 02:44:02;;;;;;;24.00;3.30;;;10.70;99.90;;;;;;4952948;29;20051;-83
2023/11/14 02:46:29;;;;;;;22.58;2.97;;;10.60;99.90;;;;;;4939447;29;20734;-83
2023/11/14 02:48:56;;;;;;;24.55;3.58;;;10.70;99.90;;;;;;4939337;29;20044;-83
2023/11/14 02:51:23;;;;;;;28.67;4.30;;;10.70;99.90;;;;;;4939424;29;20050;-83
2023/11/14 02:53:50;;;;;;;19.65;3.17;;;10.70;99.90;;;;;;4939556;29;20500;-83
2023/11/14 02:56:19;;;;;;;25.75;4.00;;;10.70;99.90;;;;;;4939147;29;20036;-83
2023/11/14 02:58:46;;;;;;;20.75;3.45;;;10.70;99.90;;;;;;4986559;29;20112;-83
2023/11/14 03:01:13;;;;;;;15.23;2.83;;;11.30;99.90;;;;;;4939477;29;20493;-82
2023/11/14 03:03:43;;;;;;;18.23;2.78;;;10.70;99.90;;;;;;4954774;29;20485;-82
2023/11/14 03:06:10;;;;;;;23.40;3.17;;;10.70;99.90;;;;;;4971053;29;20044;-82
2023/11/14 03:08:37;;;;;;;20.55;3.10;;;10.70;99.90;;;;;;4939081;29;20192;-82
2023/11/14 03:11:03;;;;;;;24.15;3.70;;;10.70;99.90;;;;;;4938974;29;20058;-82
2023/11/14 03:13:30;;;;;;;23.05;3.38;;;10.70;99.90;;;;;;4938595;29;20401;-82
2023/11/14 03:15:57;;;;;;;17.20;3.22;;;10.70;99.90;;;;;;4954388;29;20044;-83
2023/11/14 03:18:23;;;;;;;20.52;3.33;;;10.70;99.90;;;;;;4954650;29;20046;-83
2023/11/14 03:20:50;;;;;;;25.48;3.88;;;10.70;99.90;;;;;;4926405;29;20066;-83
2023/11/14 03:23:19;;;;;;;22.58;3.20;;;10.70;99.90;;;;;;4938917;29;20118;-83
2023/11/14 03:25:46;;;;;;;17.15;2.83;;;10.70;99.90;;;;;;4938333;29;20047;-83
2023/11/14 03:28:12;;;;;;;25.92;4.05;;;10.70;99.90;;;;;;4938604;29;20039;-82
2023/11/14 03:30:39;;;;;;;19.38;3.40;;;10.70;99.90;;;;;;4938258;29;20090;-83
2023/11/14 03:33:06;;;;;;;19.70;3.22;;;10.70;99.90;;;;;;4938356;29;20063;-82
2023/11/14 03:35:33;;;;;;;19.23;3.17;;;10.70;99.90;;;;;;4938626;29;20044;-83
2023/11/14 03:37:59;;;;;;;33.70;3.83;;;10.90;99.90;;;;;;4938222;29;20043;-83
2023/11/14 03:40:26;;;;;;;21.73;3.10;;;10.80;99.90;;;;;;4953732;29;20097;-83
2023/11/14 03:42:53;;;;;;;23.80;3.28;;;10.70;99.90;;;;;;4938429;29;20054;-83
2023/11/14 03:45:19;;;;;;;21.15;3.30;;;10.80;99.90;;;;;;4938460;29;20031;-82
2023/11/14 03:47:46;;;;;;;19.73;3.47;;;10.80;99.90;;;;;;4937853;29;20043;-83
2023/11/14 03:50:13;;;;;;;18.27;3.80;;;10.70;99.90;;;;;;4938132;29;20113;-83
2023/11/14 03:52:39;;;;;;;20.02;2.83;;;10.70;99.90;;;;;;4938049;29;20119;-82
2023/11/14 03:55:06;;;;;;;19.23;3.38;;;10.70;99.90;;;;;;4937895;29;20040;-83
2023/11/14 03:57:33;;;;;;;19.42;3.20;;;10.70;99.90;;;;;;4953771;29;20048;-82
2023/11/14 04:00:00;;;;;;;18.05;3.22;;;10.80;99.90;;;;;;4937884;29;20130;-82
2023/11/14 04:02:26;;;;;;;14.55;3.22;;;10.70;99.90;;;;;;4953674;29;20409;-83
2023/11/14 04:04:53;;;;;;;22.60;3.50;;;10.70;99.90;;;;;;4937855;29;20043;-83
2023/11/14 04:07:19;;;;;;;17.27;3.05;;;10.70;99.90;;;;;;4937667;29;20099;-83
2023/11/14 04:09:46;;;;;;;19.98;3.25;;;10.70;99.90;;;;;;4953189;29;20039;-83
2023/11/14 04:12:13;;;;;;;16.80;2.95;;;10.70;99.90;;;;;;4937519;29;20055;-82
2023/11/14 04:14:39;;;;;;;17.40;3.05;;;10.70;99.90;;;;;;4953750;29;20681;-83
2023/11/14 04:17:06;;;;;;;15.07;2.83;;;10.60;99.90;;;;;;4937537;29;20031;-83
2023/11/14 04:19:35;;;;;;;25.10;3.45;;;10.60;99.90;;;;;;4937972;29;20122;-82
2023/11/14 04:22:02;;;;;;;23.60;3.13;;;10.60;99.90;;;;;;4937708;29;20588;-83
2023/11/14 04:24:31;;;;;;;24.42;3.75;;;10.60;99.90;;;;;;4937211;29;20786;-82
2023/11/14 04:26:59;;;;;;;13.43;2.92;;;10.60;99.90;;;;;;4984906;29;20505;-83
2023/11/14 04:29:26;;;;;;;14.82;2.35;;;10.90;99.90;;;;;;4968949;29;20075;-82
2023/11/14 04:31:52;;;;;;;23.85;3.35;;;10.60;99.90;;;;;;4937439;29;20075;-82
2023/11/14 04:34:19;;;;;;;22.63;3.67;;;10.60;99.90;;;;;;4937889;29;20039;-82
2023/11/14 04:36:46;;;;;;;19.17;2.67;;;11.00;99.90;;;;;;4925037;29;20126;-82
2023/11/14 04:39:13;;;;;;;20.70;3.30;;;10.70;99.90;;;;;;4937016;29;20043;-82
2023/11/14 04:41:42;;;;;;;25.38;3.85;;;10.70;99.90;;;;;;4967097;29;20070;-82
2023/11/14 04:44:11;;;;;;;22.33;3.10;;;11.40;99.90;;;;;;4937405;29;20046;-83
2023/11/14 04:46:42;;;;;;;14.40;3.10;;;10.70;99.90;;;;;;4968779;29;20513;-83
2023/11/14 04:49:10;;;;;;;19.77;3.35;;;11.50;99.90;;;;;;4968926;29;20064;-83
2023/11/14 04:51:36;;;;;;;22.77;3.80;;;10.70;99.90;;;;;;4984365;29;20393;-82
2023/11/14 04:54:03;;;;;;;21.27;4.32;;;10.70;99.90;;;;;;4936720;29;20043;-83
2023/11/14 04:56:30;;;;;;;21.33;3.50;;;10.60;99.90;;;;;;4937054;29;20051;-83
2023/11/14 04:58:57;;;;;;;26.65;3.35;;;10.60;99.90;;;;;;4968520;29;20091;-83
2023/11/14 05:01:23;;;;;;;20.60;3.50;;;10.60;99.90;;;;;;4937088;29;20863;-83
2023/11/14 05:03:50;;;;;;;20.90;3.60;;;10.60;99.90;;;;;;4937290;29;20091;-83
2023/11/14 05:06:17;;;;;;;28.27;3.80;;;10.70;99.90;;;;;;4936848;29;20031;-82
2023/11/14 05:08:43;;;;;;;16.92;3.47;;;10.70;99.90;;;;;;4952401;29;20040;-83
2023/11/14 05:11:10;;;;;;;21.65;3.08;;;10.80;99.90;;;;;;4936697;29;20524;-83
2023/11/14 05:13:39;;;;;;;22.70;3.45;;;10.90;99.90;;;;;;4936777;29;20051;-82
2023/11/14 05:16:06;;;;;;;25.85;3.75;;;10.70;99.90;;;;;;4968688;29;20046;-82
2023/11/14 05:18:32;;;;;;;21.15;3.58;;;10.70;99.90;;;;;;4936971;29;20401;-83
2023/11/14 05:20:59;;;;;;;23.77;4.38;;;10.90;99.90;;;;;;4936941;29;20044;-82
2023/11/14 05:23:26;;;;;;;25.00;3.78;;;10.70;99.90;;;;;;4968271;29;20044;-83
2023/11/14 05:25:53;;;;;;;21.00;3.65;;;10.70;99.90;;;;;;4937031;29;20074;-83
2023/11/14 05:28:19;;;;;;;18.27;3.60;;;10.70;99.90;;;;;;4936611;29;20036;-83
2023/11/14 05:30:46;;;;;;;16.88;3.08;;;10.80;99.90;;;;;;4936792;29;20050;-82
2023/11/14 05:33:12;;;;;;;20.55;2.92;;;10.60;99.90;;;;;;4952694;29;20035;-83
2023/11/14 05:35:39;;;;;;;22.58;3.28;;;10.80;99.90;;;;;;4936827;29;20580;-83
2023/11/14 05:38:06;;;;;;;15.55;2.53;;;10.70;99.90;;;;;;4936184;29;20036;-82
2023/11/14 05:40:33;;;;;;;22.20;3.03;;;10.70;99.90;;;;;;4937006;29;20485;-82
2023/11/14 05:43:02;;;;;;;14.55;2.50;;;10.70;99.90;;;;;;4952396;29;20099;-83
2023/11/14 05:45:30;;;;;;;14.05;2.58;;;10.70;99.90;;;;;;4936245;29;20040;-83
2023/11/14 05:47:56;;;;;;;20.08;3.25;;;10.70;99.90;;;;;;4936534;29;20044;-83
2023/11/14 05:50:23;;;;;;;21.05;3.50;;;10.90;99.90;;;;;;4936795;29;20047;-83
2023/11/14 05:52:50;;;;;;;21.88;3.10;;;10.60;99.90;;;;;;4936252;29;20047;-83
2023/11/14 05:55:17;;;;;;;17.23;2.92;;;10.90;99.90;;;;;;4968009;29;20076;-83
2023/11/14 05:57:44;;;;;;;15.43;2.53;;;10.60;99.90;;;;;;4935072;29;20071;-83
2023/11/14 06:00:12;;;;;;;15.40;2.67;;;10.60;99.90;;;;;;4955501;29;20510;-82
2023/11/14 06:02:39;;;;;;;20.95;3.08;;;10.50;99.90;;;;;;4940360;29;20054;-83
2023/11/14 06:05:07;;;;;;;20.05;3.05;;;10.50;99.90;;;;;;4955755;29;20452;-83
2023/11/14 06:07:33;;;;;;;22.80;3.28;;;10.50;99.90;;;;;;4920991;29;20134;-83
2023/11/14 06:10:00;;;;;;;16.52;2.40;;;10.50;99.90;;;;;;4939635;29;20119;-83
2023/11/14 06:12:27;;;;;;;24.52;3.58;;;11.10;99.90;;;;;;4939922;29;20083;-83
2023/11/14 06:14:53;;;;;;;21.70;3.10;;;10.50;99.90;;;;;;4955735;29;20040;-83
2023/11/14 06:17:22;;;;;;;24.30;3.35;;;10.80;99.90;;;;;;4939954;29;20491;-83
2023/11/14 06:19:49;;;;;;;15.75;2.60;;;10.50;99.90;;;;;;4971338;29;20067;-83
2023/11/14 06:22:16;;;;;;;19.20;2.65;;;10.50;99.90;;;;;;4927344;29;20043;-83
2023/11/14 06:24:42;;;;;;;20.20;3.90;;;10.40;99.90;;;;;;4940003;29;20056;-83
2023/11/14 06:27:09;;;;;;;31.20;4.43;;;10.40;99.90;;;;;;4955388;29;20527;-83
2023/11/14 06:29:36;;;;;;;23.83;3.33;;;10.80;99.90;;;;;;4939558;29;20050;-82
2023/11/14 06:32:02;;;;;;;19.67;3.47;;;10.40;99.90;;;;;;4955174;29;20082;-82
2023/11/14 06:34:29;;;;;;;22.58;3.20;;;10.40;99.90;;;;;;4939181;29;20044;-82
2023/11/14 06:36:55;;;;;;;16.63;2.92;;;10.60;99.90;;;;;;4955296;29;20043;-83
2023/11/14 06:39:22;;;;;;;27.23;3.72;;;10.40;99.90;;;;;;4939381;29;20862;-83
2023/11/14 06:41:50;;;;;;;29.70;4.07;;;10.50;99.90;;;;;;4939570;29;20105;-83
2023/11/14 06:44:20;;;;;;;22.38;3.33;;;11.00;99.90;;;;;;4939680;29;20095;-82
2023/11/14 06:46:46;;;;;;;22.40;3.90;;;10.40;99.90;;;;;;4987071;29;20048;-83
2023/11/14 06:49:13;;;;;;;22.42;2.85;;;10.40;99.90;;;;;;4938927;29;20416;-82
2023/11/14 06:51:40;;;;;;;26.77;3.38;;;11.00;99.90;;;;;;4970255;29;20509;-83
2023/11/14 06:54:07;;;;;;;26.63;3.65;;;10.60;99.90;;;;;;4939053;29;20043;-82
2023/11/14 06:56:34;;;;;;;18.27;3.13;;;10.50;99.90;;;;;;4938677;29;20040;-82
2023/11/14 06:59:01;;;;;;;24.10;2.70;;;10.40;99.90;;;;;;4970406;29;20046;-82
2023/11/14 07:01:28;;;;;;;19.73;3.63;;;10.50;99.90;;;;;;4986278;29;20103;-82
2023/11/14 07:03:55;;;;;;;22.90;3.45;;;10.60;99.90;;;;;;4938288;29;20039;-82
2023/11/14 07:06:21;;;;;;;26.42;3.40;;;10.50;99.90;;;;;;4938391;29;20032;-82
2023/11/14 07:08:49;;;;;;;21.98;3.65;;;10.50;99.90;;;;;;4970819;29;20044;-82
2023/11/14 07:11:16;;;;;;;30.48;3.25;;;10.60;99.90;;;;;;4986191;29;20084;-82
2023/11/14 07:13:43;;;;;;;21.40;3.17;;;10.50;99.90;;;;;;4938458;29;20049;-83
2023/11/14 07:16:10;;;;;;;26.20;4.30;;;10.60;99.90;;;;;;4938659;29;20054;-82
2023/11/14 07:18:37;;;;;;;18.40;3.53;;;10.60;99.90;;;;;;4953999;29;20127;-83
2023/11/14 07:21:03;;;;;;;32.13;4.70;;;10.60;99.90;;;;;;4938920;29;20051;-82
2023/11/14 07:23:30;;;;;;;23.30;4.13;;;10.50;99.90;;;;;;4939022;29;20131;-82
2023/11/14 07:25:57;;;;;;;17.40;2.80;;;10.60;99.90;;;;;;4938227;29;20095;-82
2023/11/14 07:28:23;;;;;;;20.83;2.95;;;10.70;99.90;;;;;;4938473;29;20106;-82
2023/11/14 07:30:51;;;;;;;22.00;2.92;;;10.60;99.90;;;;;;4938124;29;20048;-82
2023/11/14 07:33:17;;;;;;;27.38;3.70;;;10.70;99.90;;;;;;4985453;29;20055;-82
2023/11/14 07:35:44;;;;;;;24.17;3.47;;;10.70;99.90;;;;;;4931709;29;20518;-82
2023/11/14 07:38:11;;;;;;;20.15;3.45;;;10.70;99.90;;;;;;4950757;29;20028;-82
2023/11/14 07:40:37;;;;;;;24.77;4.30;;;11.00;99.90;;;;;;4938518;29;20043;-82
2023/11/14 07:43:05;;;;;;;25.55;3.50;;;10.60;99.90;;;;;;4938175;29;20066;-82
2023/11/14 07:45:32;;;;;;;23.40;3.50;;;10.60;99.90;;;;;;4937733;29;20039;-81
2023/11/14 07:47:59;;;;;;;16.08;2.80;;;10.70;99.90;;;;;;4937620;29;20759;-82
2023/11/14 07:50:26;;;;;;;27.38;3.65;;;10.80;99.90;;;;;;4937819;29;20056;-82
2023/11/14 07:52:52;;;;;;;26.33;3.38;;;11.50;99.90;;;;;;4938121;29;20039;-82
2023/11/14 07:55:19;;;;;;;25.67;3.95;;;10.70;99.90;;;;;;4953483;29;20390;-82
2023/11/14 07:57:47;;;;;;;23.92;3.55;;;10.70;99.90;;;;;;4937250;29;20051;-82
2023/11/14 08:00:14;;;;;;;24.60;3.47;;;11.00;99.90;;;;;;4985701;28;20050;-82
2023/11/14 08:02:42;;;;;;;17.80;3.63;;;10.70;99.90;;;;;;4937474;29;20049;-82
2023/11/14 08:05:09;;;;;;;26.67;4.55;;;10.80;99.90;;;;;;4945760;29;20047;-82
2023/11/14 08:07:37;;;;;;;27.23;3.60;;;10.70;99.90;;;;;;4957572;29;20043;-82
2023/11/14 08:10:04;;;;;;;23.60;3.97;;;10.70;99.90;;;;;;4939256;29;20040;-82
2023/11/14 08:12:32;;;;;;;25.77;3.58;;;10.80;99.90;;;;;;4937531;29;20410;-82
2023/11/14 08:14:59;;;;;;;25.10;3.70;;;11.20;99.90;;;;;;4944727;29;20052;-83
2023/11/14 08:17:27;;;;;;;26.10;3.80;;;10.70;99.90;;;;;;4961857;29;20039;-82
2023/11/14 08:19:53;;;;;;;29.63;3.72;;;10.70;99.90;;;;;;4936836;29;20047;-81
2023/11/14 08:22:20;;;;;;;23.15;3.83;;;10.90;99.90;;;;;;4936775;29;20048;-82
2023/11/14 08:24:46;;;;;;;23.50;3.90;;;10.80;99.90;;;;;;4936848;29;20568;-81
2023/11/14 08:27:13;;;;;;;25.02;3.83;;;10.70;99.90;;;;;;4957586;29;20126;-81
2023/11/14 08:29:40;;;;;;;23.38;4.20;;;11.00;99.90;;;;;;4932122;29;20493;-82
2023/11/14 08:32:08;;;;;;;19.35;2.92;;;10.70;99.90;;;;;;4952399;29;20040;-81
2023/11/14 08:34:35;;;;;;;18.88;3.30;;;10.80;99.90;;;;;;4936856;29;20555;-83
2023/11/14 08:37:03;;;;;;;26.10;3.35;;;10.70;99.90;;;;;;4952667;29;20032;-81
2023/11/14 08:39:29;;;;;;;23.48;3.63;;;10.70;99.90;;;;;;4953001;29;20058;-81
2023/11/14 08:41:56;;;;;;;18.10;3.92;;;10.60;99.90;;;;;;4942216;29;20043;-81
2023/11/14 08:44:23;;;;;;;30.20;7.15;;;10.60;99.90;;;;;;4943678;29;20047;-82
2023/11/14 08:46:50;;;;;;;19.67;3.17;;;10.60;99.90;;;;;;4936291;29;20151;-82
2023/11/14 08:49:17;;;;;;;25.55;4.43;;;10.60;99.90;;;;;;4938951;29;20130;-82
2023/11/14 08:51:44;;;;;;;26.02;4.00;;;10.60;99.90;;;;;;4957603;29;20050;-82
2023/11/14 08:54:11;;;;;;;19.20;2.88;;;10.60;99.90;;;;;;4936449;29;20408;-82
2023/11/14 08:56:37;;;;;;;17.70;3.33;;;10.70;99.90;;;;;;4936774;29;20413;-83
2023/11/14 08:59:04;;;;;;;21.60;3.30;;;10.80;99.90;;;;;;4936107;29;20044;-83
2023/11/14 09:01:31;;;;;;;26.08;3.85;;;10.80;99.90;;;;;;4936225;29;20135;-82
2023/11/14 09:03:57;;;;;;;24.27;3.58;;;10.90;99.90;;;;;;4952453;29;20492;-81
2023/11/14 09:06:24;;;;;;;28.38;4.60;;;11.10;99.90;;;;;;4936477;29;20035;-82
2023/11/14 09:08:51;;;;;;;25.58;3.72;;;10.90;99.90;;;;;;4952173;29;20043;-82
2023/11/14 09:11:19;;;;;;;26.95;4.25;;;10.90;99.90;;;;;;4967749;29;20055;-82
2023/11/14 09:13:47;;;;;;;26.10;4.32;;;10.90;99.90;;;;;;4936579;29;20080;-83
2023/11/14 09:16:15;;;;;;;31.00;4.68;;;10.90;99.90;;;;;;4972725;29;20111;-82
2023/11/14 09:18:42;;;;;;;27.42;3.83;;;11.00;99.90;;;;;;4951743;29;20048;-82
2023/11/14 09:21:08;;;;;;;21.17;3.15;;;11.00;99.90;;;;;;4936252;29;20511;-82
2023/11/14 09:23:35;;;;;;;21.38;3.95;;;11.00;99.90;;;;;;4936064;29;20040;-81
2023/11/14 09:26:05;;;;;;;25.50;3.97;;;11.00;99.90;;;;;;4984180;29;20074;-82
2023/11/14 09:28:31;;;;;;;19.55;3.03;;;10.90;99.90;;;;;;4957012;29;20412;-82
2023/11/14 09:30:58;;;;;;;22.25;3.72;;;10.90;99.90;;;;;;4940462;29;20043;-82
2023/11/14 09:33:25;;;;;;;20.52;3.25;;;11.00;99.90;;;;;;4940637;29;20117;-81
2023/11/14 09:35:51;;;;;;;13.93;2.90;;;10.90;99.90;;;;;;4940122;29;20123;-82
2023/11/14 09:38:18;;;;;;;26.10;3.45;;;10.90;99.90;;;;;;4939994;29;20040;-81
2023/11/14 09:40:45;;;;;;;24.75;3.28;;;10.80;99.90;;;;;;4941313;29;20087;-95
2023/11/14 09:43:12;;;;;;;22.23;3.67;;;10.80;99.90;;;;;;4944471;29;20496;-94
2023/11/14 09:45:50;;;;;;;28.65;3.67;;;10.80;99.90;;;;;;4960504;29;20055;-96
2023/11/14 09:48:18;;;;;;;17.88;3.33;;;10.80;99.90;;;;;;4952271;29;20044;-89
2023/11/14 09:50:49;;;;;;;16.42;3.17;;;10.80;99.90;;;;;;4949952;29;20043;-96
2023/11/14 09:53:17;;;;;;;11.95;2.35;;;10.70;99.90;;;;;;4946256;29;20567;-94
2023/11/14 09:55:47;;;;;;;13.23;2.58;;;10.70;99.90;;;;;;4977918;29;20040;-93
2023/11/14 09:58:14;;;;;;;15.48;2.33;;;10.60;99.90;;;;;;4946452;29;20039;-93
2023/11/14 10:00:42;;;;;;;15.18;2.42;;;10.70;99.90;;;;;;4945200;29;20103;-94
2023/11/14 10:03:10;;;;;;;15.00;2.63;;;10.60;99.90;;;;;;4945039;29;20051;-96
2023/11/14 10:05:36;;;;;;;12.38;2.28;;;11.40;99.90;;;;;;4945315;29;20051;-95
2023/11/14 10:08:05;;;;;;;17.00;2.95;;;10.70;99.90;;;;;;4946198;29;20079;-95
2023/11/14 10:10:33;;;;;;;19.92;2.38;;;10.80;99.90;;;;;;4981909;29;20040;-93
2023/11/14 10:13:00;;;;;;;15.88;3.03;;;11.00;99.90;;;;;;4948124;29;20052;-96
2023/11/14 10:15:31;;;;;;;14.98;2.80;;;11.00;99.90;;;;;;4959464;29;20040;-94
2023/11/14 10:17:59;;;;;;;19.35;2.88;;;11.20;99.90;;;;;;4978168;29;20035;-96
2023/11/14 10:20:37;;;;;;;16.85;3.53;;;11.20;99.90;;;;;;4975870;29;20107;-96
2023/11/14 10:23:04;;;;;;;19.17;3.10;;;11.20;99.90;;;;;;4975567;29;20035;-94
2023/11/14 10:28:07;;;;;;;17.05;3.20;;;11.30;99.90;;;;;;4989003;23;20068;-96
2023/11/14 10:30:46;;;;;;;24.48;3.92;;;11.40;99.90;;;;;;4946480;29;20489;-96
2023/11/14 10:33:13;;;;;;;18.75;3.70;;;11.50;99.90;;;;;;4944267;29;20064;-96
2023/11/14 10:35:43;;;;;;;21.73;3.10;;;11.70;99.90;;;;;;4942788;29;20099;-94
2023/11/14 10:38:21;;;;;;;19.10;3.33;;;12.50;99.90;;;;;;4942143;29;20040;-94
2023/11/14 10:40:49;;;;;;;22.50;3.80;;;12.00;99.90;;;;;;4964925;29;20500;-91
2023/11/14 10:43:29;;;;;;;21.20;2.97;;;12.10;99.90;;;;;;4932521;29;20127;-94
2023/11/14 10:45:58;;;;;;;21.52;3.20;;;12.10;99.90;;;;;;4941979;29;20047;-94
2023/11/14 10:48:26;;;;;;;24.52;4.25;;;12.30;99.90;;;;;;4952183;29;20084;-96
2023/11/14 10:50:53;;;;;;;24.52;4.38;;;12.30;99.90;;;;;;4971441;29;20059;-96
2023/11/14 10:53:20;;;;;;;17.98;3.35;;;12.40;99.90;;;;;;4924788;29;20037;-93
2023/11/14 10:55:47;;;;;;;22.40;3.60;;;12.60;99.90;;;;;;4952352;29;20118;-95
2023/11/14 10:58:14;;;;;;;19.02;3.22;;;12.60;99.90;;;;;;4964338;29;20428;-94
2023/11/14 11:00:41;;;;;;;31.95;4.43;;;12.60;99.90;;;;;;4946309;29;20413;-91
2023/11/14 11:03:08;;;;;;;20.77;3.40;;;12.60;99.90;;;;;;4942932;29;20119;-96
2023/11/14 11:05:35;;;;;;;22.58;3.33;;;12.70;99.90;;;;;;4940787;29;20052;-94
2023/11/14 11:08:05;;;;;;;18.80;3.42;;;12.70;99.90;;;;;;4924660;29;20151;-96
2023/11/14 11:10:33;;;;;;;20.05;3.30;;;12.80;99.90;;;;;;4940580;29;20498;-95
2023/11/14 11:13:06;;;;;;;21.60;3.50;;;13.00;99.90;;;;;;4937633;29;20083;-93
2023/11/14 11:15:45;;;;;;;21.17;2.50;;;12.80;99.90;;;;;;4938416;29;20115;-92
2023/11/14 11:18:12;;;;;;;19.35;3.47;;;12.90;99.90;;;;;;4928448;29;20044;-96
2023/11/14 11:20:40;;;;;;;18.63;3.08;;;13.00;99.90;;;;;;4924362;29;20051;-96
2023/11/14 11:23:08;;;;;;;26.80;3.85;;;13.40;99.90;;;;;;4939551;29;20043;-95
2023/11/14 11:25:41;;;;;;;20.13;3.80;;;12.90;99.90;;;;;;4937653;29;20111;-93
2023/11/14 11:28:27;;;;;;;21.83;3.78;;;12.80;99.90;;;;;;4918612;29;20079;-95
2023/11/14 11:31:13;;;;;;;22.45;3.25;;;13.00;99.90;;;;;;4937934;29;20044;-96
2023/11/14 11:33:42;;;;;;;23.85;3.53;;;12.70;99.90;;;;;;4941961;29;20080;-96
2023/11/14 11:36:22;;;;;;;19.02;3.53;;;12.70;99.90;;;;;;4921831;29;20096;-95
2023/11/14 11:39:05;;;;;;;19.13;2.88;;;12.70;99.90;;;;;;4922356;29;20511;-95
2023/11/14 11:41:34;;;;;;;23.95;4.10;;;12.80;99.90;;;;;;4920504;29;20041;-94
2023/11/14 11:44:05;;;;;;;15.32;3.20;;;12.90;99.90;;;;;;4965950;29;20048;-92
2023/11/14 11:46:32;;;;;;;17.75;3.05;;;12.80;99.90;;;;;;4921477;29;20088;-94
2023/11/14 11:49:12;;;;;;;21.52;3.10;;;13.10;99.90;;;;;;4950137;29;20052;-96
2023/11/14 11:51:48;;;;;;;22.67;3.42;;;12.90;99.90;;;;;;4942903;29;20048;-94
2023/11/14 11:54:27;;;;;;;21.80;3.15;;;12.90;99.90;;;;;;4937340;29;20040;-93
2023/11/14 11:57:06;;;;;;;26.08;4.25;;;12.90;99.90;;;;;;4939506;29;20044;-95
2023/11/14 11:59:48;;;;;;;16.65;3.45;;;13.10;99.90;;;;;;4957514;29;20075;-96
2023/11/14 12:02:23;;;;;;;27.23;3.95;;;13.00;99.90;;;;;;4942506;29;20046;-96
2023/11/14 12:04:55;;;;;;;23.60;3.92;;;13.10;99.90;;;;;;4941715;29;20055;-96
2023/11/14 12:07:22;;;;;;;22.23;4.20;;;13.20;99.90;;;;;;4945058;29;20086;-92
2023/11/14 12:09:53;;;;;;;25.65;3.80;;;13.10;99.90;;;;;;4925754;29;20674;-94
2023/11/14 12:12:19;;;;;;;24.80;3.78;;;13.30;99.90;;;;;;4941854;29;20075;-93
2023/11/14 12:14:46;;;;;;;27.15;3.53;;;13.00;99.90;;;;;;4933178;29;20075;-94
2023/11/14 12:17:14;;;;;;;23.23;3.67;;;12.90;99.90;;;;;;4926118;29;20076;-94
2023/11/14 12:19:42;;;;;;;20.65;3.65;;;13.20;99.90;;;;;;4932242;29;20514;-94
2023/11/14 12:22:11;;;;;;;20.13;2.90;;;12.80;99.90;;;;;;4952405;29;20047;-96
2023/11/14 12:24:43;;;;;;;25.42;3.50;;;12.80;99.90;;;;;;4928204;29;20036;-90
2023/11/14 12:27:11;;;;;;;20.30;3.60;;;12.60;99.90;;;;;;4986822;23;20477;-95
2023/11/14 12:29:38;;;;;;;20.08;4.20;;;12.70;99.90;;;;;;4962474;29;20059;-95
2023/11/14 12:32:12;;;;;;;21.77;3.58;;;12.70;99.90;;;;;;4960595;29;20039;-96
2023/11/14 12:34:38;;;;;;;21.25;3.25;;;12.70;99.90;;;;;;4956668;29;20099;-95
2023/11/14 12:37:12;;;;;;;24.38;3.80;;;12.70;99.90;;;;;;4956510;29;20043;-96
2023/11/14 12:39:39;;;;;;;26.00;3.97;;;12.80;99.90;;;;;;4944646;29;20112;-96
2023/11/14 12:42:06;;;;;;;25.48;4.18;;;12.80;99.90;;;;;;4969253;29;20079;-95